createdAt,value
2023-03-19T00:00:30.813Z,11.79
2023-03-19T00:01:30.564Z,11.78
2023-03-19T00:02:30.866Z,11.78
2023-03-19T00:03:30.678Z,11.78
2023-03-19T00:04:30.852Z,11.76
2023-03-19T00:05:30.634Z,11.76
2023-03-19T00:06:30.891Z,11.78
2023-03-19T00:07:30.648Z,11.79
2023-03-19T00:08:51.389Z,11.83
2023-03-19T00:09:30.709Z,11.82
2023-03-19T00:10:30.450Z,11.85
2023-03-19T00:11:30.713Z,11.83
2023-03-19T00:12:30.462Z,11.83
2023-03-19T00:13:30.696Z,11.86
2023-03-19T00:14:30.425Z,11.88
2023-03-19T00:15:30.707Z,11.86
2023-03-19T00:16:30.474Z,11.90
2023-03-19T00:17:30.698Z,11.86
2023-03-19T00:18:52.002Z,11.86
2023-03-19T00:19:30.326Z,11.86
2023-03-19T00:20:30.576Z,11.85
2023-03-19T00:21:30.785Z,11.85
2023-03-19T00:22:30.595Z,11.83
2023-03-19T00:23:30.339Z,11.80
2023-03-19T00:24:30.639Z,11.80
2023-03-19T00:25:30.379Z,11.79
2023-03-19T00:26:30.599Z,11.80
2023-03-19T00:27:30.365Z,11.79
2023-03-19T00:28:51.607Z,11.79
2023-03-19T00:29:30.616Z,11.78
2023-03-19T00:30:30.382Z,11.76
2023-03-19T00:31:30.608Z,11.78
2023-03-19T00:32:30.432Z,11.78
2023-03-19T00:33:30.608Z,11.78
2023-03-19T00:34:30.368Z,11.78
2023-03-19T00:35:30.099Z,11.78
2023-03-19T00:36:30.407Z,11.76
2023-03-19T00:37:30.112Z,11.76
2023-03-19T00:38:51.869Z,11.78
2023-03-19T00:39:30.155Z,11.78
2023-03-19T00:40:30.435Z,11.76
2023-03-19T00:41:30.177Z,11.76
2023-03-19T00:42:30.444Z,11.76
2023-03-19T00:43:30.183Z,11.76
2023-03-19T00:44:30.450Z,11.78
2023-03-19T00:45:30.195Z,11.76
2023-03-19T00:46:30.517Z,11.76
2023-03-19T00:47:30.235Z,11.76
2023-03-19T00:48:50.939Z,11.79
2023-03-19T00:49:30.336Z,11.78
2023-03-19T00:50:30.092Z,11.78
2023-03-19T00:51:30.375Z,11.78
2023-03-19T00:52:30.114Z,11.80
2023-03-19T00:53:30.367Z,11.79
2023-03-19T00:54:30.144Z,11.79
2023-03-19T00:55:30.411Z,11.78
2023-03-19T00:56:30.165Z,11.76
2023-03-19T00:57:29.896Z,11.79
2023-03-19T00:58:50.518Z,11.78
2023-03-19T00:59:30.176Z,11.79
2023-03-19T01:00:29.926Z,11.78
2023-03-19T01:01:30.173Z,11.78
2023-03-19T01:02:29.925Z,11.76
2023-03-19T01:03:30.177Z,11.76
2023-03-19T01:04:29.974Z,11.73
2023-03-19T01:05:30.192Z,11.75
2023-03-19T01:06:29.963Z,11.73
2023-03-19T01:07:30.187Z,11.72
2023-03-19T01:08:51.493Z,11.72
2023-03-19T01:09:29.772Z,11.70
2023-03-19T01:10:29.996Z,11.69
2023-03-19T01:11:29.772Z,11.67
2023-03-19T01:12:30.015Z,11.67
2023-03-19T01:13:29.785Z,11.67
2023-03-19T01:14:30.033Z,11.67
2023-03-19T01:15:29.797Z,11.69
2023-03-19T01:16:30.046Z,11.67
2023-03-19T01:17:29.799Z,11.67
2023-03-19T01:18:50.498Z,11.65
2023-03-19T01:19:29.908Z,11.65
2023-03-19T01:20:29.656Z,11.67
2023-03-19T01:21:29.909Z,11.67
2023-03-19T01:22:29.669Z,11.67
2023-03-19T01:23:29.912Z,11.67
2023-03-19T01:24:29.650Z,11.65
2023-03-19T01:25:29.888Z,11.64
2023-03-19T01:26:29.655Z,11.65
2023-03-19T01:27:29.901Z,11.64
2023-03-19T01:28:51.162Z,11.64
2023-03-19T01:29:29.930Z,11.64
2023-03-19T01:30:29.711Z,11.62
2023-03-19T01:31:29.976Z,11.64
2023-03-19T01:32:29.824Z,11.64
2023-03-19T01:33:29.948Z,11.62
2023-03-19T01:34:29.718Z,11.62
2023-03-19T01:35:30.038Z,11.61
2023-03-19T01:36:29.712Z,11.61
2023-03-19T01:37:29.951Z,11.61
2023-03-19T01:38:51.238Z,11.62
2023-03-19T01:39:29.712Z,11.60
2023-03-19T01:40:29.777Z,11.61
2023-03-19T01:41:29.505Z,11.61
2023-03-19T01:42:29.784Z,11.61
2023-03-19T01:43:29.509Z,11.61
2023-03-19T01:44:29.771Z,11.62
2023-03-19T01:45:29.515Z,11.62
2023-03-19T01:46:29.816Z,11.61
2023-03-19T01:47:29.533Z,11.62
2023-03-19T01:48:51.299Z,11.61
2023-03-19T01:49:29.570Z,11.60
2023-03-19T01:50:29.819Z,11.60
2023-03-19T01:51:29.573Z,11.60
2023-03-19T01:52:31.255Z,11.60
2023-03-19T01:53:29.575Z,11.60
2023-03-19T01:54:29.324Z,11.61
2023-03-19T01:55:29.567Z,11.60
2023-03-19T01:56:29.327Z,11.61
2023-03-19T01:57:29.550Z,11.60
2023-03-19T01:58:50.476Z,11.61
2023-03-19T01:59:29.605Z,11.61
2023-03-19T02:00:29.333Z,11.61
2023-03-19T02:01:29.663Z,11.61
2023-03-19T02:02:29.353Z,11.60
2023-03-19T02:03:29.573Z,11.60
2023-03-19T02:04:29.395Z,11.62
2023-03-19T02:05:29.590Z,11.62
2023-03-19T02:06:29.353Z,11.61
2023-03-19T02:07:29.591Z,11.62
2023-03-19T02:08:50.909Z,11.64
2023-03-19T02:09:29.167Z,11.64
2023-03-19T02:10:29.424Z,11.64
2023-03-19T02:11:29.185Z,11.64
2023-03-19T02:12:29.448Z,11.67
2023-03-19T02:13:29.227Z,11.65
2023-03-19T02:14:29.433Z,11.65
2023-03-19T02:15:29.176Z,11.65
2023-03-19T02:16:29.511Z,11.65
2023-03-19T02:17:29.182Z,11.65
2023-03-19T02:18:50.937Z,11.65
2023-03-19T02:19:29.220Z,11.65
2023-03-19T02:20:29.511Z,11.65
2023-03-19T02:21:29.208Z,11.65
2023-03-19T02:22:29.490Z,11.65
2023-03-19T02:23:29.230Z,11.67
2023-03-19T02:24:29.482Z,11.65
2023-03-19T02:25:29.237Z,11.65
2023-03-19T02:26:29.001Z,11.67
2023-03-19T02:27:29.226Z,11.67
2023-03-19T02:28:50.012Z,11.69
2023-03-19T02:29:29.306Z,11.69
2023-03-19T02:30:29.066Z,11.69
2023-03-19T02:31:29.365Z,11.67
2023-03-19T02:32:29.050Z,11.65
2023-03-19T02:33:29.332Z,11.67
2023-03-19T02:34:29.045Z,11.65
2023-03-19T02:35:29.317Z,11.65
2023-03-19T02:36:29.025Z,11.67
2023-03-19T02:37:31.916Z,11.65
2023-03-19T02:38:49.995Z,11.65
2023-03-19T02:39:28.909Z,11.65
2023-03-19T02:40:29.164Z,11.62
2023-03-19T02:41:28.919Z,11.62
2023-03-19T02:42:29.165Z,11.62
2023-03-19T02:43:28.923Z,11.60
2023-03-19T02:44:29.183Z,11.61
2023-03-19T02:45:28.920Z,11.62
2023-03-19T02:46:30.646Z,11.60
2023-03-19T02:47:28.936Z,11.61
2023-03-19T02:48:50.795Z,11.61
2023-03-19T02:49:29.090Z,11.61
2023-03-19T02:50:28.832Z,11.61
2023-03-19T02:51:29.105Z,11.62
2023-03-19T02:52:28.841Z,11.62
2023-03-19T02:53:29.133Z,11.62
2023-03-19T02:54:28.872Z,11.64
2023-03-19T02:55:29.127Z,11.61
2023-03-19T02:56:28.872Z,11.62
2023-03-19T02:57:29.106Z,11.62
2023-03-19T02:58:50.362Z,11.64
2023-03-19T02:59:28.655Z,11.65
2023-03-19T03:00:28.943Z,11.65
2023-03-19T03:01:28.658Z,11.67
2023-03-19T03:02:28.944Z,11.65
2023-03-19T03:03:28.669Z,11.65
2023-03-19T03:04:28.903Z,11.65
2023-03-19T03:05:28.659Z,11.67
2023-03-19T03:06:28.910Z,11.65
2023-03-19T03:07:28.660Z,11.65
2023-03-19T03:08:49.494Z,11.65
2023-03-19T03:09:28.730Z,11.65
2023-03-19T03:10:29.000Z,11.64
2023-03-19T03:11:28.762Z,11.64
2023-03-19T03:12:28.528Z,11.64
2023-03-19T03:13:28.799Z,11.64
2023-03-19T03:14:28.580Z,11.65
2023-03-19T03:15:28.893Z,11.65
2023-03-19T03:16:28.712Z,11.65
2023-03-19T03:17:28.970Z,11.65
2023-03-19T03:18:50.224Z,11.65
2023-03-19T03:19:28.591Z,11.65
2023-03-19T03:20:28.833Z,11.64
2023-03-19T03:21:28.646Z,11.64
2023-03-19T03:22:28.923Z,11.67
2023-03-19T03:23:28.711Z,11.65
2023-03-19T03:24:28.464Z,11.65
2023-03-19T03:25:28.762Z,11.65
2023-03-19T03:26:28.537Z,11.65
2023-03-19T03:27:28.830Z,11.65
2023-03-19T03:28:49.586Z,11.70
2023-03-19T03:29:28.449Z,11.69
2023-03-19T03:30:28.740Z,11.69
2023-03-19T03:31:28.562Z,11.69
2023-03-19T03:32:28.775Z,11.70
2023-03-19T03:33:28.567Z,11.69
2023-03-19T03:34:28.329Z,11.67
2023-03-19T03:35:28.617Z,11.69
2023-03-19T03:36:28.397Z,11.69
2023-03-19T03:37:28.670Z,11.67
2023-03-19T03:38:49.500Z,11.67
2023-03-19T03:39:28.344Z,11.67
2023-03-19T03:40:28.594Z,11.65
2023-03-19T03:41:28.390Z,11.65
2023-03-19T03:42:28.711Z,11.64
2023-03-19T03:43:28.489Z,11.65
2023-03-19T03:44:28.260Z,11.64
2023-03-19T03:45:28.623Z,11.64
2023-03-19T03:46:28.366Z,11.61
2023-03-19T03:47:28.631Z,11.61
2023-03-19T03:48:48.477Z,11.62
2023-03-19T03:49:28.246Z,11.61
2023-03-19T03:50:28.519Z,11.60
2023-03-19T03:51:28.276Z,11.58
2023-03-19T03:52:28.542Z,11.57
2023-03-19T03:53:28.304Z,11.57
2023-03-19T03:54:28.549Z,11.57
2023-03-19T03:55:28.349Z,11.55
2023-03-19T03:56:28.127Z,11.55
2023-03-19T03:57:28.407Z,11.54
2023-03-19T03:58:49.671Z,11.54
2023-03-19T03:59:28.443Z,11.52
2023-03-19T04:00:28.232Z,11.52
2023-03-19T04:01:28.502Z,11.51
2023-03-19T04:02:28.354Z,11.51
2023-03-19T04:03:28.120Z,11.47
2023-03-19T04:04:28.269Z,11.47
2023-03-19T04:05:28.040Z,11.46
2023-03-19T04:06:28.273Z,11.44
2023-03-19T04:07:28.043Z,11.42
2023-03-19T04:08:49.763Z,11.43
2023-03-19T04:09:28.116Z,11.42
2023-03-19T04:10:28.338Z,11.40
2023-03-19T04:11:28.083Z,11.39
2023-03-19T04:12:28.378Z,11.39
2023-03-19T04:13:28.099Z,11.36
2023-03-19T04:14:28.333Z,11.35
2023-03-19T04:15:28.078Z,11.32
2023-03-19T04:16:28.369Z,11.29
2023-03-19T04:17:28.072Z,11.28
2023-03-19T04:18:49.042Z,11.25
2023-03-19T04:19:28.132Z,11.25
2023-03-19T04:20:27.882Z,11.21
2023-03-19T04:21:28.125Z,11.19
2023-03-19T04:22:27.900Z,11.17
2023-03-19T04:23:28.232Z,11.17
2023-03-19T04:24:27.917Z,11.14
2023-03-19T04:25:28.161Z,11.10
2023-03-19T04:26:27.912Z,11.07
2023-03-19T04:27:28.168Z,11.07
2023-03-19T04:28:49.429Z,11.03
2023-03-19T04:29:28.219Z,11.02
2023-03-19T04:30:28.041Z,11.00
2023-03-19T04:31:27.741Z,10.99
2023-03-19T04:32:27.987Z,10.94
2023-03-19T04:33:27.752Z,10.94
2023-03-19T04:34:27.982Z,10.94
2023-03-19T04:35:27.764Z,10.92
2023-03-19T04:36:27.987Z,10.91
2023-03-19T04:37:27.794Z,10.92
2023-03-19T04:38:49.549Z,10.92
2023-03-19T04:39:27.848Z,10.92
2023-03-19T04:40:28.088Z,10.89
2023-03-19T04:41:27.849Z,10.91
2023-03-19T04:42:28.104Z,10.89
2023-03-19T04:43:27.919Z,10.88
2023-03-19T04:44:27.647Z,10.88
2023-03-19T04:45:27.927Z,10.86
2023-03-19T04:46:27.718Z,10.86
2023-03-19T04:47:27.907Z,10.85
2023-03-19T04:48:49.161Z,10.84
2023-03-19T04:49:27.948Z,10.84
2023-03-19T04:50:27.716Z,10.84
2023-03-19T04:51:27.995Z,10.84
2023-03-19T04:52:27.685Z,10.84
2023-03-19T04:53:27.961Z,10.82
2023-03-19T04:54:27.691Z,10.82
2023-03-19T04:55:27.981Z,10.84
2023-03-19T04:56:27.720Z,10.82
2023-03-19T04:57:27.508Z,10.81
2023-03-19T04:58:49.255Z,10.81
2023-03-19T04:59:27.540Z,10.81
2023-03-19T05:00:27.871Z,10.81
2023-03-19T05:01:27.648Z,10.79
2023-03-19T05:02:27.886Z,10.81
2023-03-19T05:03:27.738Z,10.81
2023-03-19T05:04:27.416Z,10.78
2023-03-19T05:05:27.682Z,10.76
2023-03-19T05:06:27.400Z,10.78
2023-03-19T05:07:27.666Z,10.76
2023-03-19T05:08:47.690Z,10.76
2023-03-19T05:09:27.355Z,10.76
2023-03-19T05:10:27.576Z,10.78
2023-03-19T05:11:27.361Z,10.76
2023-03-19T05:12:27.588Z,10.74
2023-03-19T05:13:27.343Z,10.76
2023-03-19T05:14:27.567Z,10.76
2023-03-19T05:15:27.325Z,10.76
2023-03-19T05:16:27.582Z,10.76
2023-03-19T05:17:27.347Z,10.76
2023-03-19T05:18:49.081Z,10.78
2023-03-19T05:19:27.385Z,10.78
2023-03-19T05:20:27.629Z,10.76
2023-03-19T05:21:27.397Z,10.78
2023-03-19T05:22:27.624Z,10.78
2023-03-19T05:23:27.394Z,10.79
2023-03-19T05:24:27.674Z,10.79
2023-03-19T05:25:27.436Z,10.79
2023-03-19T05:26:27.168Z,10.79
2023-03-19T05:27:27.459Z,10.81
2023-03-19T05:28:48.784Z,10.81
2023-03-19T05:29:27.589Z,10.82
2023-03-19T05:30:27.354Z,10.82
2023-03-19T05:31:27.669Z,10.84
2023-03-19T05:32:27.307Z,10.84
2023-03-19T05:33:27.111Z,10.86
2023-03-19T05:34:27.345Z,10.85
2023-03-19T05:35:27.149Z,10.85
2023-03-19T05:36:27.344Z,10.88
2023-03-19T05:37:27.098Z,10.86
2023-03-19T05:38:48.847Z,10.89
2023-03-19T05:39:27.153Z,10.89
2023-03-19T05:40:27.402Z,10.92
2023-03-19T05:41:27.157Z,10.89
2023-03-19T05:42:27.401Z,10.91
2023-03-19T05:43:27.161Z,10.91
2023-03-19T05:44:27.418Z,10.91
2023-03-19T05:45:27.173Z,10.91
2023-03-19T05:46:27.462Z,10.89
2023-03-19T05:47:28.164Z,10.91
2023-03-19T05:48:48.955Z,10.88
2023-03-19T05:49:27.271Z,10.86
2023-03-19T05:50:27.004Z,10.88
2023-03-19T05:51:28.722Z,10.84
2023-03-19T05:52:27.053Z,10.85
2023-03-19T05:53:27.273Z,10.84
2023-03-19T05:54:27.041Z,10.84
2023-03-19T05:55:27.283Z,10.82
2023-03-19T05:56:27.021Z,10.81
2023-03-19T05:57:27.292Z,10.79
2023-03-19T05:58:48.540Z,10.76
2023-03-19T05:59:26.848Z,10.74
2023-03-19T06:00:27.094Z,10.71
2023-03-19T06:01:26.881Z,10.71
2023-03-19T06:02:27.217Z,10.71
2023-03-19T06:03:26.871Z,10.71
2023-03-19T06:04:27.131Z,10.67
2023-03-19T06:05:26.862Z,10.68
2023-03-19T06:06:27.117Z,10.66
2023-03-19T06:07:28.311Z,10.63
2023-03-19T06:08:47.703Z,10.63
2023-03-19T06:09:26.934Z,10.63
2023-03-19T06:10:26.670Z,10.61
2023-03-19T06:11:26.932Z,10.61
2023-03-19T06:12:26.699Z,10.60
2023-03-19T06:13:26.950Z,10.61
2023-03-19T06:14:26.692Z,10.61
2023-03-19T06:15:26.935Z,10.61
2023-03-19T06:16:26.690Z,10.61
2023-03-19T06:17:26.941Z,10.61
2023-03-19T06:18:48.195Z,10.61
2023-03-19T06:19:26.990Z,10.61
2023-03-19T06:20:26.815Z,10.60
2023-03-19T06:21:27.033Z,10.60
2023-03-19T06:22:26.777Z,10.59
2023-03-19T06:23:27.055Z,10.59
2023-03-19T06:24:26.963Z,10.60
2023-03-19T06:25:26.653Z,10.61
2023-03-19T06:26:26.899Z,10.63
2023-03-19T06:27:26.667Z,10.63
2023-03-19T06:28:47.938Z,10.61
2023-03-19T06:29:26.859Z,10.61
2023-03-19T06:30:26.624Z,10.63
2023-03-19T06:31:26.859Z,10.63
2023-03-19T06:32:26.600Z,10.63
2023-03-19T06:33:26.833Z,10.61
2023-03-19T06:34:26.603Z,10.64
2023-03-19T06:35:26.868Z,10.66
2023-03-19T06:36:26.603Z,10.66
2023-03-19T06:37:26.880Z,10.66
2023-03-19T06:38:48.072Z,10.66
2023-03-19T06:39:26.379Z,10.64
2023-03-19T06:40:26.621Z,10.64
2023-03-19T06:41:26.343Z,10.64
2023-03-19T06:42:26.692Z,10.64
2023-03-19T06:43:26.373Z,10.66
2023-03-19T06:44:26.624Z,10.66
2023-03-19T06:45:26.355Z,10.67
2023-03-19T06:46:26.617Z,10.68
2023-03-19T06:47:26.357Z,10.68
2023-03-19T06:48:48.143Z,10.70
2023-03-19T06:49:26.419Z,10.71
2023-03-19T06:50:26.703Z,10.73
2023-03-19T06:51:26.427Z,10.74
2023-03-19T06:52:26.697Z,10.78
2023-03-19T06:53:26.429Z,10.79
2023-03-19T06:54:26.673Z,10.82
2023-03-19T06:55:26.406Z,10.86
2023-03-19T06:56:26.669Z,10.89
2023-03-19T06:57:26.500Z,10.91
2023-03-19T06:58:46.601Z,10.97
2023-03-19T06:59:25.673Z,11.00
2023-03-19T07:00:25.696Z,11.14
2023-03-19T07:01:25.766Z,11.19
2023-03-19T07:02:25.675Z,11.22
2023-03-19T07:03:25.628Z,11.52
2023-03-19T07:04:25.656Z,11.61
2023-03-19T07:05:25.593Z,11.55
2023-03-19T07:06:25.600Z,11.60
2023-03-19T07:07:25.597Z,11.60
2023-03-19T07:08:45.723Z,11.60
2023-03-19T07:09:25.538Z,11.62
2023-03-19T07:10:25.573Z,11.62
2023-03-19T07:11:25.529Z,11.62
2023-03-19T07:12:25.544Z,11.75
2023-03-19T07:13:25.496Z,12.05
2023-03-19T07:14:25.545Z,12.49
2023-03-19T07:15:26.291Z,12.65
2023-03-19T07:16:26.161Z,12.68
2023-03-19T07:17:26.310Z,12.77
2023-03-19T07:18:47.552Z,12.77
2023-03-19T07:19:27.136Z,12.75
2023-03-19T07:20:26.628Z,12.79
2023-03-19T07:21:27.664Z,12.86
2023-03-19T07:22:25.974Z,12.78
2023-03-19T07:23:26.240Z,12.77
2023-03-19T07:24:26.000Z,12.68
2023-03-19T07:25:26.270Z,12.64
2023-03-19T07:26:26.026Z,12.62
2023-03-19T07:27:26.249Z,12.62
2023-03-19T07:28:46.042Z,12.90
2023-03-19T07:29:26.256Z,12.86
2023-03-19T07:30:26.047Z,12.85
2023-03-19T07:31:26.359Z,12.86
2023-03-19T07:32:26.065Z,13.25
2023-03-19T07:33:26.317Z,13.28
2023-03-19T07:34:26.102Z,13.23
2023-03-19T07:35:25.845Z,13.28
2023-03-19T07:36:26.078Z,13.44
2023-03-19T07:37:25.817Z,13.63
2023-03-19T07:38:46.078Z,14.95
2023-03-19T07:39:25.806Z,15.36
2023-03-19T07:40:26.074Z,15.84
2023-03-19T07:41:25.852Z,15.65
2023-03-19T07:42:26.085Z,15.51
2023-03-19T07:43:25.850Z,15.27
2023-03-19T07:44:26.079Z,15.28
2023-03-19T07:45:25.813Z,15.07
2023-03-19T07:46:26.091Z,15.32
2023-03-19T07:47:29.306Z,15.80
2023-03-19T07:48:46.145Z,16.25
2023-03-19T07:49:25.861Z,16.35
2023-03-19T07:50:26.120Z,16.60
2023-03-19T07:51:25.847Z,17.01
2023-03-19T07:52:26.152Z,17.31
2023-03-19T07:53:25.852Z,17.44
2023-03-19T07:54:25.658Z,17.41
2023-03-19T07:55:25.909Z,17.68
2023-03-19T07:56:25.664Z,18.05
2023-03-19T07:57:25.892Z,18.37
2023-03-19T07:58:45.683Z,18.63
2023-03-19T07:59:25.890Z,18.82
2023-03-19T08:00:25.652Z,18.78
2023-03-19T08:01:25.931Z,18.76
2023-03-19T08:02:25.736Z,18.98
2023-03-19T08:03:25.915Z,19.47
2023-03-19T08:04:25.698Z,19.95
2023-03-19T08:05:25.897Z,20.33
2023-03-19T08:06:25.663Z,20.55
2023-03-19T08:07:25.929Z,20.73
2023-03-19T08:08:45.711Z,20.67
2023-03-19T08:09:26.289Z,20.50
2023-03-19T08:10:25.710Z,20.23
2023-03-19T08:11:25.422Z,19.86
2023-03-19T08:12:25.709Z,19.58
2023-03-19T08:13:25.436Z,19.61
2023-03-19T08:14:25.708Z,19.92
2023-03-19T08:15:25.453Z,20.32
2023-03-19T08:16:25.823Z,20.03
2023-03-19T08:17:25.481Z,19.98
2023-03-19T08:18:45.706Z,19.51
2023-03-19T08:19:25.439Z,19.21
2023-03-19T08:20:25.731Z,18.90
2023-03-19T08:21:25.460Z,18.50
2023-03-19T08:22:25.738Z,18.25
2023-03-19T08:23:25.496Z,17.79
2023-03-19T08:24:25.746Z,17.49
2023-03-19T08:25:25.502Z,17.22
2023-03-19T08:26:25.739Z,17.04
2023-03-19T08:27:25.535Z,16.96
2023-03-19T08:28:47.248Z,17.28
2023-03-19T08:29:25.655Z,17.28
2023-03-19T08:30:25.330Z,18.05
2023-03-19T08:31:25.609Z,18.78
2023-03-19T08:32:25.362Z,19.41
2023-03-19T08:33:25.759Z,19.02
2023-03-19T08:34:25.387Z,18.81
2023-03-19T08:35:25.601Z,19.41
2023-03-19T08:36:24.685Z,19.86
2023-03-19T08:37:25.396Z,20.48
2023-03-19T08:38:46.237Z,20.62
2023-03-19T08:39:25.533Z,20.32
2023-03-19T08:40:25.285Z,19.88
2023-03-19T08:41:25.537Z,20.24
2023-03-19T08:42:25.296Z,20.28
2023-03-19T08:43:25.519Z,20.33
2023-03-19T08:44:25.283Z,21.07
2023-03-19T08:45:25.543Z,22.07
2023-03-19T08:46:25.328Z,22.35
2023-03-19T08:47:24.535Z,21.82
2023-03-19T08:48:46.813Z,21.28
2023-03-19T08:49:24.506Z,21.37
2023-03-19T08:50:25.272Z,21.83
2023-03-19T08:51:24.522Z,21.37
2023-03-19T08:52:25.266Z,22.18
2023-03-19T08:53:25.000Z,22.73
2023-03-19T08:54:25.457Z,21.98
2023-03-19T08:55:25.048Z,22.40
2023-03-19T08:56:25.273Z,23.01
2023-03-19T08:57:25.018Z,22.25
2023-03-19T08:58:46.834Z,22.58
2023-03-19T08:59:25.118Z,23.05
2023-03-19T09:00:25.525Z,22.80
2023-03-19T09:01:25.183Z,21.80
2023-03-19T09:02:26.868Z,20.92
2023-03-19T09:03:25.178Z,21.68
2023-03-19T09:04:24.958Z,22.49
2023-03-19T09:05:25.219Z,23.38
2023-03-19T09:06:24.993Z,24.18
2023-03-19T09:07:25.220Z,24.76
2023-03-19T09:08:45.689Z,25.77
2023-03-19T09:09:25.303Z,25.69
2023-03-19T09:10:25.063Z,26.09
2023-03-19T09:11:25.432Z,25.75
2023-03-19T09:12:25.065Z,25.77
2023-03-19T09:13:24.805Z,24.57
2023-03-19T09:14:25.062Z,23.54
2023-03-19T09:15:24.845Z,22.70
2023-03-19T09:16:25.160Z,21.83
2023-03-19T09:17:24.880Z,21.31
2023-03-19T09:18:46.826Z,22.03
2023-03-19T09:19:25.025Z,21.68
2023-03-19T09:20:24.793Z,21.65
2023-03-19T09:21:25.056Z,21.79
2023-03-19T09:22:24.847Z,21.25
2023-03-19T09:23:25.078Z,21.10
2023-03-19T09:24:25.352Z,21.16
2023-03-19T09:25:25.080Z,22.05
2023-03-19T09:26:24.866Z,21.29
2023-03-19T09:27:25.078Z,21.06
2023-03-19T09:28:46.401Z,22.52
2023-03-19T09:30:21.195Z,22.55
2023-03-19T09:30:56.720Z,23.83
2023-03-19T09:31:29.444Z,23.84
2023-03-19T09:32:26.534Z,23.57
2023-03-19T09:33:26.787Z,23.36
2023-03-19T09:34:26.556Z,22.95
2023-03-19T09:35:26.775Z,22.49
2023-03-19T09:36:27.206Z,21.80
2023-03-19T09:37:26.817Z,21.14
2023-03-19T09:38:48.067Z,21.49
2023-03-19T09:39:26.865Z,21.54
2023-03-19T09:40:39.626Z,22.49
2023-03-19T09:41:26.417Z,22.27
2023-03-19T09:42:26.683Z,23.35
2023-03-19T09:45:41.930Z,23.75
2023-03-19T09:45:47.086Z,25.91
2023-03-19T09:46:56.602Z,26.10
2023-03-19T09:47:57.802Z,26.97
2023-03-19T09:55:00.067Z,27.49
2023-03-19T09:56:58.838Z,29.76
2023-03-19T09:57:06.804Z,30.01
2023-03-19T09:58:05.596Z,28.33
2023-03-19T10:35:52.454Z,28.88
2023-03-19T10:36:08.385Z,32.21
2023-03-19T10:36:59.656Z,31.12
2023-03-19T10:40:21.475Z,30.62
2023-03-19T10:40:26.320Z,31.92
2023-03-19T10:41:27.040Z,30.31
2023-03-19T10:42:26.785Z,28.88
2023-03-19T10:50:15.280Z,29.71
2023-03-19T10:50:20.106Z,32.45
2023-03-19T10:58:48.848Z,32.47
2023-03-19T10:58:54.612Z,33.42
2023-03-19T11:00:05.417Z,33.19
2023-03-19T11:01:39.730Z,32.22
2023-03-19T11:01:53.625Z,32.25
2023-03-19T11:02:54.405Z,30.17
2023-03-19T11:04:01.381Z,30.20
2023-03-19T11:04:54.484Z,29.57
2023-03-19T11:06:15.743Z,28.68
2023-03-19T11:07:38.645Z,28.46
2023-03-19T11:10:13.760Z,29.09
2023-03-19T11:14:39.225Z,30.62
2023-03-19T11:14:44.842Z,32.92
2023-03-19T11:16:49.150Z,32.35
2023-03-19T11:20:18.866Z,32.62
2023-03-19T11:20:24.639Z,33.37
2023-03-19T11:21:25.906Z,31.80
2023-03-19T11:22:24.241Z,30.84
2023-03-19T11:23:44.503Z,29.39
2023-03-19T11:24:24.253Z,28.73
2023-03-19T11:25:24.476Z,28.04
2023-03-19T11:26:27.758Z,28.19
2023-03-19T11:27:47.505Z,29.08
2023-03-19T11:29:40.326Z,28.52
2023-03-19T11:30:40.049Z,28.07
2023-03-19T11:31:40.329Z,27.97
2023-03-19T11:32:40.170Z,27.78
2023-03-19T11:33:44.294Z,28.78
2023-03-19T11:35:11.665Z,29.87
2023-03-19T11:36:03.468Z,30.35
2023-03-19T11:38:04.175Z,30.60
2023-03-19T11:38:10.465Z,31.54
2023-03-19T11:39:49.830Z,31.70
2023-03-19T11:40:11.597Z,31.50
2023-03-19T11:41:11.399Z,30.60
2023-03-19T11:42:11.196Z,29.45
2023-03-19T11:43:10.488Z,28.37
2023-03-19T11:44:10.924Z,27.40
2023-03-19T11:45:10.285Z,26.66
2023-03-19T11:46:11.086Z,25.90
2023-03-19T11:47:26.162Z,25.30
2023-03-19T11:48:12.263Z,24.65
2023-03-19T11:49:29.613Z,23.97
2023-03-19T11:50:11.403Z,23.61
2023-03-19T11:51:10.295Z,23.12
2023-03-19T11:52:10.998Z,22.79
2023-03-19T11:53:10.527Z,22.47
2023-03-19T11:54:09.636Z,22.27
2023-03-19T11:55:09.382Z,22.14
2023-03-19T11:56:09.615Z,21.94
2023-03-19T11:57:09.382Z,21.65
2023-03-19T11:58:09.626Z,21.40
2023-03-19T11:59:29.394Z,21.12
2023-03-19T12:00:09.616Z,20.99
2023-03-19T12:01:09.391Z,20.76
2023-03-19T12:02:09.694Z,20.50
2023-03-19T12:03:09.453Z,20.29
2023-03-19T12:04:09.665Z,20.13
2023-03-19T12:05:09.440Z,20.02
2023-03-19T12:06:09.666Z,19.99
2023-03-19T12:07:09.429Z,19.99
2023-03-19T12:08:09.677Z,19.95
2023-03-19T12:09:29.448Z,20.01
2023-03-19T12:10:09.173Z,20.02
2023-03-19T12:11:09.583Z,20.06
2023-03-19T12:12:09.180Z,20.11
2023-03-19T12:13:09.447Z,20.16
2023-03-19T12:14:09.184Z,20.21
2023-03-19T12:15:10.444Z,20.24
2023-03-19T12:16:09.341Z,20.21
2023-03-19T12:17:09.861Z,20.24
2023-03-19T12:18:09.247Z,20.23
2023-03-19T12:19:29.534Z,20.18
2023-03-19T12:20:09.252Z,20.20
2023-03-19T12:21:09.523Z,20.16
2023-03-19T12:22:09.263Z,20.11
2023-03-19T12:23:09.499Z,20.13
2023-03-19T12:24:09.235Z,20.13
2023-03-19T12:25:11.005Z,20.11
2023-03-19T12:26:09.297Z,20.11
2023-03-19T12:27:09.059Z,20.13
2023-03-19T12:28:09.338Z,20.14
2023-03-19T12:29:29.105Z,20.14
2023-03-19T12:30:09.484Z,20.10
2023-03-19T12:31:09.114Z,20.14
2023-03-19T12:32:09.374Z,20.17
2023-03-19T12:33:09.214Z,20.21
2023-03-19T12:34:09.341Z,20.29
2023-03-19T12:35:09.145Z,20.38
2023-03-19T12:36:09.430Z,20.79
2023-03-19T12:37:09.136Z,21.75
2023-03-19T12:38:08.897Z,22.61
2023-03-19T12:39:29.193Z,22.80
2023-03-19T12:40:08.910Z,22.64
2023-03-19T12:41:09.190Z,22.52
2023-03-19T12:42:08.937Z,22.37
2023-03-19T12:43:09.213Z,22.25
2023-03-19T12:44:08.979Z,22.03
2023-03-19T12:45:09.254Z,21.86
2023-03-19T12:46:09.056Z,21.71
2023-03-19T12:47:08.798Z,21.53
2023-03-19T12:48:09.018Z,21.40
2023-03-19T12:49:28.821Z,21.17
2023-03-19T12:50:09.050Z,21.06
2023-03-19T12:51:08.812Z,20.89
2023-03-19T12:52:09.058Z,20.73
2023-03-19T12:53:08.831Z,20.52
2023-03-19T12:54:09.060Z,20.31
2023-03-19T12:55:08.829Z,20.11
2023-03-19T12:56:09.069Z,19.92
2023-03-19T12:57:08.842Z,19.81
2023-03-19T12:58:09.142Z,19.76
2023-03-19T12:59:28.910Z,19.71
2023-03-19T13:00:09.625Z,19.62
2023-03-19T13:01:08.925Z,19.56
2023-03-19T13:02:08.798Z,19.54
2023-03-19T13:03:08.948Z,19.48
2023-03-19T13:04:08.681Z,19.41
2023-03-19T13:05:09.067Z,19.41
2023-03-19T13:06:10.131Z,19.43
2023-03-19T13:07:08.974Z,19.43
2023-03-19T13:08:08.717Z,19.39
2023-03-19T13:09:28.958Z,19.40
2023-03-19T13:10:08.714Z,19.39
2023-03-19T13:11:08.985Z,19.36
2023-03-19T13:12:08.714Z,19.32
2023-03-19T13:13:08.979Z,19.31
2023-03-19T13:14:08.758Z,19.26
2023-03-19T13:15:08.523Z,19.23
2023-03-19T13:16:08.803Z,19.25
2023-03-19T13:17:08.557Z,19.23
2023-03-19T13:18:08.775Z,19.16
2023-03-19T13:19:28.591Z,19.16
2023-03-19T13:20:08.796Z,19.18
2023-03-19T13:21:08.588Z,19.19
2023-03-19T13:22:08.817Z,19.21
2023-03-19T13:23:08.576Z,19.19
2023-03-19T13:24:08.830Z,19.19
2023-03-19T13:25:08.620Z,19.18
2023-03-19T13:26:08.876Z,19.19
2023-03-19T13:27:08.650Z,19.19
2023-03-19T13:28:08.473Z,19.19
2023-03-19T13:29:28.857Z,19.19
2023-03-19T13:30:08.445Z,19.25
2023-03-19T13:31:08.701Z,19.29
2023-03-19T13:32:08.448Z,19.29
2023-03-19T13:33:08.734Z,19.26
2023-03-19T13:34:08.459Z,19.23
2023-03-19T13:35:09.682Z,19.23
2023-03-19T13:36:08.528Z,19.23
2023-03-19T13:37:08.294Z,19.13
2023-03-19T13:38:08.596Z,19.07
2023-03-19T13:39:28.331Z,19.06
2023-03-19T13:40:08.606Z,19.07
2023-03-19T13:41:08.341Z,19.08
2023-03-19T13:42:08.603Z,19.08
2023-03-19T13:43:15.639Z,19.07
2023-03-19T13:44:09.622Z,19.02
2023-03-19T13:45:08.376Z,19.00
2023-03-19T13:46:10.591Z,18.99
2023-03-19T13:47:08.451Z,18.92
2023-03-19T13:48:21.926Z,18.84
2023-03-19T13:49:29.439Z,18.82
2023-03-19T13:50:08.214Z,18.82
2023-03-19T13:51:08.480Z,18.82
2023-03-19T13:52:08.235Z,18.81
2023-03-19T13:53:08.499Z,18.81
2023-03-19T13:54:08.305Z,18.80
2023-03-19T13:55:08.537Z,18.75
2023-03-19T13:56:15.710Z,18.78
2023-03-19T13:57:09.516Z,18.80
2023-03-19T13:58:08.285Z,18.84
2023-03-19T13:59:28.560Z,18.91